Arnett, Oklahoma
Current Conditions -  °F | °C
As of 1:53 AM on Saturday 01 Nov 2014 (Local Time) from KGAG Reporting Station
Clear Clear  
Wind Chill: -2°   Ceiling: Unl
Heat Index:   Visibility: 10mi
Dew Point: -6°   Wind: 9mph
Humidity: 59%   Direction: 140°SE
Pressure: 30.34"   Gusts: NA
Location:  36.14°N, 99.77°W
Report Text: KGAG 010653Z AUTO 14008KT 10SM CLR 02/M06 A3034 RMK AO2 SLP278 T00171056
Loading
Personal Weather Stations






























Interactive Weather Map
Tropical Storm Tracking
New forecast layout! Learn more

10-Day Weather Forecast

Advertisements
Track Severe Weather on mobile